Time;durP1;ratioP1;P1;durP2;ratioP2;P2;SDS_P1;SDS_P2;PMS_P1;PMS_P2;Temp;Humidity;BMP_temperature;BMP_pressure;BME280_temperature;BME280_humidity;BME280_pressure;Samples;Min_cycle;Max_cycle;Signal;HPM_P1;HPM_P2
2021/09/01 00:01:12;;;;;;;21.63;5.10;;;;;;;16.74;69.33;102670.22;5083076;28;20031;-63
2021/09/01 00:03:37;;;;;;;24.13;5.65;;;;;;;16.74;70.45;102667.53;5083524;28;20060;-60
2021/09/01 00:06:03;;;;;;;23.48;5.47;;;;;;;16.79;70.03;102668.47;5083996;28;20085;-61
2021/09/01 00:08:28;;;;;;;21.00;5.32;;;;;;;16.84;69.64;102681.88;5082470;28;20020;-61
2021/09/01 00:10:53;;;;;;;22.73;5.20;;;;;;;16.86;69.26;102674.75;5085391;28;20024;-61
2021/09/01 00:13:19;;;;;;;24.15;5.78;;;;;;;16.83;69.48;102677.41;5081478;28;20456;-60
2021/09/01 00:15:44;;;;;;;23.27;5.53;;;;;;;16.84;69.39;102677.41;5084256;28;20071;-60
2021/09/01 00:18:10;;;;;;;23.33;5.55;;;;;;;16.76;70.70;102672.88;5082911;28;20026;-60
2021/09/01 00:20:35;;;;;;;21.50;5.53;;;;;;;16.78;70.01;102679.16;5083012;28;20039;-68
2021/09/01 00:23:00;;;;;;;22.55;5.60;;;;;;;16.74;70.56;102679.09;5084360;28;20024;-68
2021/09/01 00:25:26;;;;;;;23.63;5.35;;;;;;;16.74;71.02;102676.44;5081745;28;20020;-68
2021/09/01 00:27:51;;;;;;;24.92;6.72;;;;;;;16.74;70.19;102678.22;5084057;28;20126;-68
2021/09/01 00:30:17;;;;;;;21.75;5.68;;;;;;;16.73;70.78;102669.34;5081690;28;20088;-68
2021/09/01 00:32:42;;;;;;;24.05;5.85;;;;;;;16.59;71.94;102670.13;5065409;28;20379;-68
2021/09/01 00:35:08;;;;;;;23.92;5.68;;;;;;;16.61;71.65;102665.66;5083070;28;20455;-68
2021/09/01 00:37:33;;;;;;;25.17;6.25;;;;;;;16.49;71.91;102671.78;5082333;28;20540;-68
2021/09/01 00:39:59;;;;;;;24.65;6.07;;;;;;;16.46;73.05;102669.09;5084145;28;20032;-69
2021/09/01 00:42:24;;;;;;;24.67;6.10;;;;;;;16.47;72.59;102673.53;5081482;28;20437;-68
2021/09/01 00:44:49;;;;;;;24.75;6.00;;;;;;;16.52;72.55;102666.47;5084308;28;20048;-68
2021/09/01 00:47:21;;;;;;;23.50;5.90;;;;;;;16.47;73.62;102674.47;5081622;28;20467;-68
2021/09/01 00:49:47;;;;;;;22.50;5.70;;;;;;;16.42;73.54;102667.28;5083398;28;20073;-68
2021/09/01 00:52:13;;;;;;;22.50;5.70;;;;;;;16.44;72.53;102670.84;5080193;28;20536;-68
2021/09/01 00:54:40;;;;;;;22.98;6.20;;;;;;;16.42;72.75;102667.28;5084437;28;20108;-68
2021/09/01 00:57:07;;;;;;;23.88;5.95;;;;;;;16.36;73.27;102673.47;5081075;28;20032;-68
2021/09/01 00:59:35;;;;;;;24.50;5.97;;;;;;;16.42;73.12;102670.84;5084888;28;20390;-69
2021/09/01 01:02:04;;;;;;;21.92;5.95;;;;;;;16.36;73.08;102674.34;5080772;28;20091;-65
2021/09/01 01:04:30;;;;;;;22.98;5.85;;;;;;;16.43;72.94;102674.41;5063529;28;20039;-63
2021/09/01 01:07:00;;;;;;;23.80;5.95;;;;;;;16.42;72.97;102677.97;5083749;28;20020;-62
2021/09/01 01:09:26;;;;;;;23.15;5.90;;;;;;;16.38;74.09;102675.28;5081323;28;20048;-64
2021/09/01 01:12:11;;;;;;;23.85;5.90;;;;;;;16.45;73.42;102672.66;5083393;28;20051;-62
2021/09/01 01:14:42;;;;;;;22.90;5.85;;;;;;;16.39;73.52;102668.16;5081139;28;20463;-64
2021/09/01 01:17:10;;;;;;;23.13;5.78;;;;;;;16.39;74.89;102666.34;5083877;28;20035;-63
2021/09/01 01:19:40;;;;;;;23.20;6.00;;;;;;;16.34;73.95;102662.78;5080991;28;20024;-62
2021/09/01 01:22:07;;;;;;;22.90;6.07;;;;;;;16.29;73.23;102667.16;5083952;28;20501;-60
2021/09/01 01:24:51;;;;;;;22.48;5.72;;;;;;;16.37;73.37;102669.91;5080900;28;20029;-63
2021/09/01 01:27:44;;;;;;;22.10;6.05;;;;;;;16.41;72.67;102678.84;5082505;28;20031;-61
2021/09/01 01:30:12;;;;;;;25.02;6.15;;;;;;;16.39;72.92;102674.38;5081594;28;20037;-65
2021/09/01 01:32:39;;;;;;;23.45;6.00;;;;;;;16.34;72.80;102669.91;5083577;28;20479;-64
2021/09/01 01:35:06;;;;;;;23.08;5.95;;;;;;;16.37;72.67;102670.81;5080398;28;20086;-62
2021/09/01 01:37:31;;;;;;;23.10;5.85;;;;;;;16.30;72.60;102668.97;5084456;28;20374;-63
2021/09/01 01:39:57;;;;;;;22.63;6.03;;;;;;;16.34;72.48;102670.78;5083341;28;20025;-63
2021/09/01 01:42:22;;;;;;;21.80;5.60;;;;;;;16.28;72.93;102668.06;5087113;28;20062;-61
2021/09/01 01:44:47;;;;;;;23.38;5.72;;;;;;;16.30;72.53;102671.63;5086132;28;20499;-62
2021/09/01 01:47:13;;;;;;;23.67;5.80;;;;;;;16.26;72.74;102675.13;5085601;28;20028;-60
2021/09/01 01:49:38;;;;;;;23.08;5.80;;;;;;;16.26;73.30;102675.13;5087672;28;20104;-61
2021/09/01 01:52:04;;;;;;;21.90;5.80;;;;;;;16.24;74.20;102676.00;5084780;28;20052;-62
2021/09/01 01:54:30;;;;;;;23.42;5.65;;;;;;;16.20;73.75;102672.41;5088052;28;20032;-62
2021/09/01 01:56:55;;;;;;;23.05;5.60;;;;;;;16.16;74.76;102670.59;5085058;28;20028;-62
2021/09/01 01:59:20;;;;;;;23.55;6.03;;;;;;;16.09;74.78;102684.75;5086435;28;20020;-61
2021/09/01 02:01:46;;;;;;;22.13;5.90;;;;;;;16.12;75.67;102668.75;5086148;28;20039;-61
2021/09/01 02:04:11;;;;;;;22.05;5.85;;;;;;;16.12;75.00;102679.44;5085023;28;20115;-64
2021/09/01 02:06:36;;;;;;;21.23;5.90;;;;;;;16.11;75.93;102680.34;5087372;28;20439;-61
2021/09/01 02:09:02;;;;;;;23.63;5.75;;;;;;;16.14;76.88;102680.38;5083866;28;20025;-62
2021/09/01 02:11:27;;;;;;;22.20;5.63;;;;;;;16.08;77.63;102688.31;5087140;28;20028;-61
2021/09/01 02:13:53;;;;;;;23.33;5.63;;;;;;;16.11;77.05;102683.00;5084767;28;20062;-62
2021/09/01 02:16:18;;;;;;;22.45;5.53;;;;;;;16.08;75.93;102689.19;5086443;28;20024;-63
2021/09/01 02:18:43;;;;;;;21.88;5.78;;;;;;;16.06;77.80;102682.94;5085402;28;20048;-66
2021/09/01 02:21:09;;;;;;;21.90;5.70;;;;;;;15.98;78.54;102676.63;5084832;28;20063;-68
2021/09/01 02:23:34;;;;;;;22.35;5.80;;;;;;;15.95;78.17;102682.81;5086317;28;20100;-69
2021/09/01 02:25:59;;;;;;;23.45;5.97;;;;;;;15.92;78.89;102682.81;5085271;28;20028;-67
2021/09/01 02:28:25;;;;;;;22.98;5.93;;;;;;;15.89;79.20;102680.09;5085371;28;20031;-65
2021/09/01 02:30:52;;;;;;;21.48;5.85;;;;;;;15.90;78.81;102675.66;5086257;28;20027;-68
2021/09/01 02:33:17;;;;;;;25.15;6.68;;;;;;;15.91;79.73;102674.78;5084259;28;20115;-67
2021/09/01 02:35:43;;;;;;;22.92;6.28;;;;;;;15.86;80.56;102678.28;5086769;28;20106;-59
2021/09/01 02:38:08;;;;;;;21.73;5.88;;;;;;;15.85;81.10;102676.50;5083340;28;20032;-60
2021/09/01 02:40:33;;;;;;;21.98;5.95;;;;;;;15.83;81.59;102683.59;5086613;28;20060;-59
2021/09/01 02:42:58;;;;;;;23.65;5.93;;;;;;;15.83;82.15;102682.72;5083892;28;20039;-59
2021/09/01 02:45:24;;;;;;;22.20;6.65;;;;;;;15.82;81.99;102678.25;5066827;28;20036;-59
2021/09/01 02:47:49;;;;;;;21.95;6.20;;;;;;;15.85;82.15;102675.59;5082720;28;20060;-62
2021/09/01 02:50:15;;;;;;;23.48;6.50;;;;;;;15.83;83.71;102680.91;5084948;28;20070;-62
2021/09/01 02:52:42;;;;;;;21.33;5.93;;;;;;;15.77;83.23;102680.81;5083756;28;20479;-59
2021/09/01 02:55:08;;;;;;;24.23;6.10;;;;;;;15.79;83.77;102686.22;5086383;28;20031;-60
2021/09/01 02:57:33;;;;;;;21.65;6.22;;;;;;;15.79;85.41;102684.44;5083236;28;20016;-59
2021/09/01 02:59:58;;;;;;;23.13;6.20;;;;;;;15.82;84.55;102683.56;5086591;28;20016;-59
2021/09/01 03:02:24;;;;;;;22.83;6.75;;;;;;;15.72;84.72;102682.53;5083997;28;20021;-59
2021/09/01 03:04:49;;;;;;;22.80;6.43;;;;;;;15.71;84.73;102687.84;5084929;28;20036;-59
2021/09/01 03:07:15;;;;;;;22.73;6.00;;;;;;;15.78;85.86;102681.72;5085428;28;20030;-59
2021/09/01 03:09:40;;;;;;;22.05;6.20;;;;;;;15.79;84.28;102678.22;5083482;28;20398;-60
2021/09/01 03:12:06;;;;;;;23.65;6.82;;;;;;;15.80;83.05;102669.31;5086244;28;20024;-60
2021/09/01 03:14:31;;;;;;;21.95;6.85;;;;;;;15.74;83.33;102682.53;5083098;28;20035;-60
2021/09/01 03:16:56;;;;;;;22.15;6.45;;;;;;;15.75;83.43;102673.69;5085679;28;20538;-59
2021/09/01 03:19:22;;;;;;;24.95;6.60;;;;;;;15.79;84.39;102686.22;5083857;28;20487;-68
2021/09/01 03:21:48;;;;;;;23.35;6.55;;;;;;;15.77;84.85;102674.56;5066111;28;20553;-69
2021/09/01 03:24:13;;;;;;;23.58;6.60;;;;;;;15.72;84.98;102684.31;5084878;28;20063;-68
2021/09/01 03:26:39;;;;;;;24.80;6.68;;;;;;;15.68;87.37;102681.59;5083200;28;20024;-68
2021/09/01 03:29:04;;;;;;;21.77;6.57;;;;;;;15.72;87.89;102678.97;5086164;28;20024;-68
2021/09/01 03:31:29;;;;;;;22.08;6.40;;;;;;;15.76;87.21;102681.69;5082392;28;20044;-68
2021/09/01 03:33:55;;;;;;;22.70;6.88;;;;;;;15.75;87.07;102684.34;5085181;28;20482;-68
2021/09/01 03:36:20;;;;;;;25.00;7.38;;;;;;;15.76;86.10;102695.03;5083660;28;20043;-68
2021/09/01 03:38:46;;;;;;;26.75;7.55;;;;;;;15.74;87.06;102690.53;5083627;28;20060;-68
2021/09/01 03:41:11;;;;;;;23.88;6.68;;;;;;;15.68;86.71;102680.69;5084984;28;20035;-68
2021/09/01 03:43:36;;;;;;;24.85;6.97;;;;;;;15.65;88.18;102686.91;5082083;28;20040;-67
2021/09/01 03:46:02;;;;;;;24.55;7.68;;;;;;;15.55;88.06;102686.75;5081664;28;20036;-68
2021/09/01 03:48:27;;;;;;;25.17;7.63;;;;;;;15.48;89.50;102692.00;5084036;28;20447;-68
2021/09/01 03:50:53;;;;;;;23.75;7.32;;;;;;;15.46;89.82;102690.19;5084622;28;20061;-68
2021/09/01 03:53:19;;;;;;;25.70;7.20;;;;;;;15.39;90.44;102696.31;5082498;28;20467;-68
2021/09/01 03:55:46;;;;;;;23.77;7.35;;;;;;;15.30;92.19;102697.06;5082093;28;20067;-68
2021/09/01 03:58:12;;;;;;;27.08;7.82;;;;;;;15.33;93.16;102695.38;5085598;28;20032;-68
2021/09/01 04:00:39;;;;;;;24.73;7.90;;;;;;;15.26;93.50;102698.81;5082318;28;20475;-68
2021/09/01 04:03:05;;;;;;;23.05;7.50;;;;;;;15.24;93.46;102697.88;5084811;28;20468;-64
2021/09/01 04:05:30;;;;;;;24.73;7.70;;;;;;;15.22;93.69;102689.00;5083388;28;20166;-65
2021/09/01 04:07:55;;;;;;;23.67;7.45;;;;;;;15.19;94.92;102691.63;5083303;28;20028;-59
2021/09/01 04:10:21;;;;;;;25.10;8.25;;;;;;;15.18;93.78;102700.47;5084468;28;20024;-64
2021/09/01 04:12:46;;;;;;;25.33;7.63;;;;;;;15.15;93.53;102698.66;5081791;28;20031;-63
2021/09/01 04:15:12;;;;;;;23.17;7.65;;;;;;;15.15;94.06;102697.75;5085280;28;20112;-65
2021/09/01 04:17:37;;;;;;;23.75;7.53;;;;;;;15.11;96.86;102695.91;5082124;28;20068;-67
2021/09/01 04:20:03;;;;;;;24.65;8.13;;;;;;;15.11;96.49;102694.13;5084022;28;20550;-62
2021/09/01 04:22:28;;;;;;;26.40;8.43;;;;;;;15.04;96.11;102688.72;5083371;28;20022;-62
2021/09/01 04:24:53;;;;;;;25.80;8.50;;;;;;;15.07;96.16;102691.41;5082522;28;20430;-61
2021/09/01 04:27:19;;;;;;;26.25;8.15;;;;;;;15.05;96.37;102685.19;5065769;28;20126;-65
2021/09/01 04:29:44;;;;;;;23.75;7.70;;;;;;;15.06;97.72;102689.66;5081380;28;20037;-61
2021/09/01 04:32:10;;;;;;;26.25;8.20;;;;;;;15.03;98.51;102685.16;5084923;28;20081;-65
2021/09/01 04:34:35;;;;;;;24.05;7.78;;;;;;;15.07;98.44;102689.66;5082060;28;20060;-66
2021/09/01 04:37:00;;;;;;;24.90;7.90;;;;;;;15.11;97.55;102687.94;5083659;28;20450;-66
2021/09/01 04:39:26;;;;;;;25.50;8.00;;;;;;;15.08;96.25;102687.88;5083281;28;20107;-67
2021/09/01 04:41:51;;;;;;;26.10;8.10;;;;;;;15.06;96.37;102694.97;5082317;28;20099;-63
2021/09/01 04:44:16;;;;;;;24.45;8.20;;;;;;;15.13;96.94;102694.16;5084471;28;20078;-64
2021/09/01 04:46:42;;;;;;;24.90;8.70;;;;;;;15.15;96.34;102697.75;5080887;28;20437;-67
2021/09/01 04:49:07;;;;;;;26.55;8.20;;;;;;;15.13;96.66;102694.16;5065561;28;20085;-61
2021/09/01 04:51:32;;;;;;;25.52;8.35;;;;;;;15.13;97.58;102688.84;5082410;28;20028;-65
2021/09/01 04:53:57;;;;;;;23.65;8.35;;;;;;;15.14;97.70;102694.22;5082661;28;20040;-65
2021/09/01 04:56:23;;;;;;;25.27;8.65;;;;;;;15.16;97.30;102689.78;5083609;28;20050;-64
2021/09/01 04:58:48;;;;;;;25.73;8.90;;;;;;;15.06;95.48;102694.97;5081404;28;20111;-61
2021/09/01 05:01:13;;;;;;;26.70;9.07;;;;;;;14.93;96.84;102694.78;5066253;28;20028;-67
2021/09/01 05:03:39;;;;;;;27.55;9.70;;;;;;;14.86;97.42;102692.00;5081579;28;20036;-65
2021/09/01 05:06:05;;;;;;;27.83;10.00;;;;;;;14.94;97.31;102696.56;5083556;28;20078;-59
2021/09/01 05:08:30;;;;;;;27.95;9.75;;;;;;;14.97;96.05;102693.06;5082432;28;20482;-68
2021/09/01 05:10:55;;;;;;;28.17;9.30;;;;;;;15.01;95.33;102694.00;5082380;28;20064;-67
2021/09/01 05:13:20;;;;;;;26.13;9.25;;;;;;;15.04;95.02;102699.38;5083533;28;20115;-68
2021/09/01 05:15:47;;;;;;;26.63;9.75;;;;;;;15.04;96.15;102694.03;5084826;28;20031;-65
2021/09/01 05:18:12;;;;;;;28.70;9.85;;;;;;;15.02;97.59;102699.34;5088743;28;20024;-68
2021/09/01 05:20:38;;;;;;;25.27;9.20;;;;;;;15.07;98.16;102699.41;5085472;28;20025;-67
2021/09/01 05:23:08;;;;;;;27.15;9.80;;;;;;;15.10;95.93;102711.03;5088041;28;20020;-68
2021/09/01 05:25:56;;;;;;;26.15;9.40;;;;;;;15.14;94.88;102706.63;5086306;28;20024;-68
2021/09/01 05:28:27;;;;;;;25.42;9.23;;;;;;;15.11;95.09;102714.56;5085871;28;20033;-67
2021/09/01 05:30:53;;;;;;;28.45;9.63;;;;;;;15.15;95.26;102713.75;5087066;28;20070;-68
2021/09/01 05:33:20;;;;;;;26.95;9.50;;;;;;;15.20;94.88;102722.69;5084728;28;20025;-68
2021/09/01 05:35:49;;;;;;;26.38;9.68;;;;;;;15.24;93.63;102719.19;5087703;28;20039;-68
2021/09/01 05:38:17;;;;;;;26.48;9.93;;;;;;;15.24;92.26;102711.22;5085761;28;20034;-68
2021/09/01 05:40:43;;;;;;;28.00;9.70;;;;;;;15.28;92.89;102715.72;5086958;28;20031;-68
2021/09/01 05:43:09;;;;;;;27.15;9.70;;;;;;;15.23;93.70;102714.75;5085905;28;20104;-68
2021/09/01 05:45:34;;;;;;;27.20;10.20;;;;;;;15.24;95.06;102718.31;5086452;28;20048;-68
2021/09/01 05:48:01;;;;;;;28.45;10.18;;;;;;;15.21;96.30;102718.28;5085050;28;20412;-68
2021/09/01 05:50:28;;;;;;;26.95;9.85;;;;;;;15.18;96.85;102719.13;5087845;28;20471;-68
2021/09/01 05:52:53;;;;;;;27.10;10.10;;;;;;;15.22;97.81;102720.97;5084632;28;20031;-63
2021/09/01 05:55:18;;;;;;;26.52;9.75;;;;;;;15.24;96.48;102713.88;5091615;28;20031;-58
2021/09/01 05:57:46;;;;;;;24.65;9.95;;;;;;;15.36;94.13;102706.94;5089543;28;20032;-59
2021/09/01 06:00:16;;;;;;;26.83;10.05;;;;;;;15.44;93.23;102710.59;5091207;28;20094;-59
2021/09/01 06:03:02;;;;;;;29.45;10.30;;;;;;;15.47;92.94;102707.97;5088302;28;20077;-59
2021/09/01 06:05:28;;;;;;;27.20;9.93;;;;;;;15.48;94.43;102713.34;5073082;28;20071;-58
2021/09/01 06:07:56;;;;;;;26.75;10.32;;;;;;;15.44;93.70;102714.16;5093070;28;20035;-59
2021/09/01 06:10:30;;;;;;;28.27;10.40;;;;;;;15.46;93.59;102714.19;5089231;28;20060;-59
2021/09/01 06:13:00;;;;;;;27.83;10.65;;;;;;;15.36;94.78;102714.94;5090374;28;20033;-59
2021/09/01 06:15:26;;;;;;;29.27;10.90;;;;;;;15.39;94.90;102713.22;5090012;28;20093;-59
2021/09/01 06:17:51;;;;;;;28.27;11.10;;;;;;;15.39;94.56;102718.53;5090388;28;20024;-59
2021/09/01 06:20:17;;;;;;;28.02;11.00;;;;;;;15.47;94.59;102719.53;5091974;28;20107;-58
2021/09/01 06:22:43;;;;;;;27.88;10.73;;;;;;;15.55;94.19;102716.94;5091056;28;20035;-58
2021/09/01 06:25:08;;;;;;;28.95;10.45;;;;;;;15.59;91.80;102716.13;5073449;28;20043;-59
2021/09/01 06:27:34;;;;;;;28.25;10.88;;;;;;;15.59;92.72;102710.78;5086870;28;20391;-59
2021/09/01 06:29:59;;;;;;;27.73;9.50;;;;;;;15.58;90.29;102713.44;5071889;28;20028;-59
2021/09/01 06:32:25;;;;;;;28.92;10.48;;;;;;;15.57;91.24;102723.22;5093170;28;20012;-57
2021/09/01 06:34:50;;;;;;;26.30;9.73;;;;;;;15.53;91.03;102718.72;5088772;28;20054;-58
2021/09/01 06:37:16;;;;;;;29.88;10.68;;;;;;;15.60;90.86;102722.38;5091330;28;20482;-59
2021/09/01 06:39:41;;;;;;;25.77;10.73;;;;;;;15.62;90.75;102726.81;5090939;28;20107;-58
2021/09/01 06:42:07;;;;;;;29.05;10.15;;;;;;;15.76;91.06;102735.00;5067439;28;20036;-58
2021/09/01 06:44:33;;;;;;;30.25;10.90;;;;;;;15.76;91.43;102735.00;5091555;28;20052;-58
2021/09/01 06:46:59;;;;;;;28.67;11.63;;;;;;;15.74;89.66;102731.44;5090077;28;20033;-59
2021/09/01 06:49:24;;;;;;;26.98;11.15;;;;;;;15.71;91.70;102735.84;5087972;28;20347;-59
2021/09/01 06:51:49;;;;;;;25.98;10.38;;;;;;;15.73;90.66;102734.97;5073036;28;20395;-59
2021/09/01 06:54:15;;;;;;;26.77;11.00;;;;;;;15.77;90.07;102730.56;5074373;28;20462;-59
2021/09/01 06:56:40;;;;;;;27.60;11.00;;;;;;;15.74;91.07;102735.88;5093364;28;20506;-59
2021/09/01 06:59:05;;;;;;;31.75;11.52;;;;;;;15.68;88.81;102732.25;5087470;28;20032;-59
2021/09/01 07:01:31;;;;;;;28.27;11.73;;;;;;;15.64;88.64;102740.16;5090348;28;20043;-58
2021/09/01 07:03:56;;;;;;;27.90;11.82;;;;;;;15.68;88.05;102731.34;5091442;28;20114;-58
2021/09/01 07:06:22;;;;;;;28.95;10.50;;;;;;;15.71;85.52;102733.16;5088441;28;20052;-59
2021/09/01 07:08:48;;;;;;;26.30;10.95;;;;;;;15.80;86.94;102742.22;5089756;28;20395;-60
2021/09/01 07:11:13;;;;;;;27.90;10.70;;;;;;;15.92;86.58;102746.81;5087028;28;20020;-58
2021/09/01 07:13:39;;;;;;;26.17;11.30;;;;;;;15.86;86.20;102741.41;5090060;28;20039;-59
2021/09/01 07:16:06;;;;;;;28.73;11.20;;;;;;;15.90;87.21;102737.91;5089354;28;20032;-59
2021/09/01 07:18:31;;;;;;;29.27;11.60;;;;;;;15.98;86.81;102736.19;5074166;28;20154;-59
2021/09/01 07:20:56;;;;;;;25.70;11.10;;;;;;;16.07;84.80;102739.88;5072562;28;20111;-59
2021/09/01 07:23:22;;;;;;;27.60;11.38;;;;;;;16.05;84.58;102742.50;5090924;28;20479;-59
2021/09/01 07:25:47;;;;;;;26.92;11.10;;;;;;;16.20;84.51;102745.34;5092958;28;20024;-59
2021/09/01 07:28:12;;;;;;;27.08;10.75;;;;;;;16.33;84.23;102746.38;5086228;28;20028;-59
2021/09/01 07:30:38;;;;;;;26.25;10.52;;;;;;;16.37;82.55;102744.66;5089304;28;20032;-59
2021/09/01 07:33:04;;;;;;;28.70;10.60;;;;;;;16.40;81.21;102750.00;5072544;28;20448;-59
2021/09/01 07:35:29;;;;;;;25.13;10.10;;;;;;;16.51;80.78;102752.78;5089118;28;20043;-60
2021/09/01 07:37:55;;;;;;;28.50;10.18;;;;;;;16.58;78.75;102757.28;5066304;28;20485;-59
2021/09/01 07:40:23;;;;;;;26.80;10.52;;;;;;;16.78;78.12;102759.28;5087575;28;20062;-59
2021/09/01 07:42:49;;;;;;;27.48;10.18;;;;;;;16.84;77.91;102764.66;5088252;28;20016;-59
2021/09/01 07:45:17;;;;;;;24.80;9.55;;;;;;;16.85;78.37;102763.78;5088777;28;20076;-62
2021/09/01 07:47:53;;;;;;;25.98;9.75;;;;;;;16.82;78.67;102779.75;5087794;28;20108;-61
2021/09/01 07:50:21;;;;;;;27.10;10.50;;;;;;;16.83;77.98;102773.53;5086931;28;20028;-62
2021/09/01 07:52:47;;;;;;;28.10;10.10;;;;;;;16.79;77.46;102771.72;5088290;28;20024;-60
2021/09/01 07:55:13;;;;;;;25.30;9.95;;;;;;;16.90;78.32;102772.75;5081441;28;20029;-63
2021/09/01 07:57:39;;;;;;;27.13;11.15;;;;;;;16.97;77.18;102773.72;5084412;28;20081;-63
2021/09/01 08:00:09;;;;;;;26.30;10.75;;;;;;;16.97;75.93;102779.94;5081548;28;20017;-64
2021/09/01 08:02:34;;;;;;;26.50;10.50;;;;;;;16.96;76.25;102779.91;5083223;28;20024;-60
2021/09/01 08:05:00;;;;;;;26.42;11.00;;;;;;;16.99;75.91;102778.16;5081417;28;20016;-59
2021/09/01 08:07:25;;;;;;;28.75;11.27;;;;;;;17.06;75.45;102779.13;5083277;28;20471;-62
2021/09/01 08:09:51;;;;;;;26.88;10.65;;;;;;;17.12;75.38;102783.63;5082707;28;20028;-60
2021/09/01 08:12:17;;;;;;;28.27;11.70;;;;;;;17.30;75.72;102778.41;5084433;28;20065;-60
2021/09/01 08:14:42;;;;;;;28.58;11.15;;;;;;;17.36;75.67;102782.91;5081444;28;20036;-62
2021/09/01 08:17:07;;;;;;;25.52;10.57;;;;;;;17.39;75.37;102785.59;5081842;28;20025;-60
2021/09/01 08:19:33;;;;;;;27.50;10.55;;;;;;;17.43;74.98;102790.09;5084644;28;20024;-60
2021/09/01 08:21:58;;;;;;;27.05;10.77;;;;;;;17.49;75.17;102792.78;5082707;28;20020;-60
2021/09/01 08:24:24;;;;;;;26.90;10.80;;;;;;;17.50;73.51;102791.00;5083060;28;20024;-61
2021/09/01 08:26:49;;;;;;;27.02;11.63;;;;;;;17.54;73.14;102798.16;5065263;28;20407;-60
2021/09/01 08:29:15;;;;;;;26.45;11.30;;;;;;;17.59;72.95;102797.31;5081573;28;20035;-60
2021/09/01 08:31:40;;;;;;;25.67;10.73;;;;;;;17.69;73.30;102798.25;5085144;28;20459;-60
2021/09/01 08:34:05;;;;;;;26.55;11.35;;;;;;;17.76;73.76;102812.53;5081740;28;20394;-64
2021/09/01 08:36:31;;;;;;;25.80;11.38;;;;;;;17.72;73.67;102808.06;5083799;28;20445;-61
2021/09/01 08:38:56;;;;;;;27.45;10.73;;;;;;;17.85;72.38;102809.03;5083050;28;20097;-60
2021/09/01 08:41:22;;;;;;;27.02;11.02;;;;;;;17.93;72.97;102812.69;5082701;28;20016;-60
2021/09/01 08:43:47;;;;;;;27.90;10.73;;;;;;;18.03;71.75;102822.53;5083829;28;20552;-60
2021/09/01 08:46:13;;;;;;;28.42;11.70;;;;;;;17.95;70.12;102816.25;5081073;28;20041;-61
2021/09/01 08:48:40;;;;;;;26.13;11.45;;;;;;;17.93;71.18;102807.31;5083744;28;20019;-60
2021/09/01 08:51:06;;;;;;;26.52;11.55;;;;;;;17.94;71.13;102811.81;5081513;28;20048;-63
2021/09/01 08:53:32;;;;;;;25.95;11.07;;;;;;;18.03;70.76;102813.63;5083666;28;20043;-61
2021/09/01 08:55:57;;;;;;;24.55;8.27;;;;;;;18.01;67.34;102804.69;5082286;28;20542;-63
2021/09/01 08:58:22;;;;;;;24.17;7.43;;;;;;;18.04;67.93;102807.34;5082595;28;20074;-60
2021/09/01 09:00:48;;;;;;;22.73;7.68;;;;;;;18.20;66.71;102806.56;5083594;28;20168;-61
2021/09/01 09:03:13;;;;;;;25.52;7.72;;;;;;;18.32;66.26;102805.69;5080842;28;20025;-61
2021/09/01 09:05:41;;;;;;;23.00;7.35;;;;;;;18.34;66.36;102803.91;5084465;28;20119;-62
2021/09/01 09:08:09;;;;;;;23.45;7.20;;;;;;;18.33;66.32;102811.94;5081094;28;20431;-62
2021/09/01 09:10:40;;;;;;;24.55;7.18;;;;;;;18.50;65.47;102809.31;5083741;28;20020;-63
2021/09/01 09:13:08;;;;;;;21.65;7.00;;;;;;;18.53;64.74;102799.50;5081343;28;20032;-61
2021/09/01 09:15:35;;;;;;;25.00;7.35;;;;;;;18.63;64.41;102808.44;5083473;28;20489;-59
2021/09/01 09:18:02;;;;;;;22.15;6.72;;;;;;;18.76;63.81;102802.19;5081979;28;20024;-60
2021/09/01 09:20:33;;;;;;;23.60;7.10;;;;;;;18.91;62.93;102805.81;5083087;28;20048;-60
2021/09/01 09:23:06;;;;;;;24.13;7.32;;;;;;;18.99;61.59;102801.38;5081619;28;20032;-60
2021/09/01 09:25:33;;;;;;;23.60;7.25;;;;;;;19.16;62.17;102802.25;5082157;28;20025;-62
2021/09/01 09:28:06;;;;;;;23.08;7.10;;;;;;;19.17;60.48;102809.38;5083628;28;20459;-68
2021/09/01 09:30:41;;;;;;;21.92;6.75;;;;;;;19.30;62.08;102795.97;5081091;28;20112;-63
2021/09/01 09:33:09;;;;;;;22.13;6.40;;;;;;;19.25;60.51;102800.44;5082200;28;20437;-67
2021/09/01 09:36:03;;;;;;;21.17;6.20;;;;;;;19.45;60.68;102801.31;5082187;28;20098;-65
2021/09/01 09:38:30;;;;;;;22.65;6.60;;;;;;;19.77;58.44;102803.00;5081106;28;20040;-68
2021/09/01 09:40:55;;;;;;;22.95;6.50;;;;;;;19.69;56.80;102796.81;5083876;28;20528;-68
2021/09/01 09:43:23;;;;;;;20.40;5.60;;;;;;;19.44;56.15;102804.91;5080632;28;20028;-68
2021/09/01 09:45:57;;;;;;;22.05;5.53;;;;;;;19.43;56.81;102800.44;5083555;28;20139;-68
2021/09/01 09:48:31;;;;;;;20.45;6.10;;;;;;;19.39;57.23;102798.63;5080613;28;20033;-70
2021/09/01 09:50:56;;;;;;;23.38;6.00;;;;;;;19.47;57.70;102804.91;5080512;28;20029;-67
2021/09/01 09:53:35;;;;;;;21.85;5.50;;;;;;;19.55;59.59;102803.97;5083987;28;20031;-67
2021/09/01 09:56:28;;;;;;;22.83;5.68;;;;;;;19.48;58.41;102808.47;5081548;28;20382;-70
2021/09/01 09:58:56;;;;;;;21.50;5.60;;;;;;;19.33;58.09;102804.91;5080754;28;20017;-65
2021/09/01 10:01:23;;;;;;;21.63;5.43;;;;;;;19.32;58.74;102796.88;5085511;28;20024;-65
2021/09/01 10:03:50;;;;;;;21.88;5.82;;;;;;;19.22;58.90;102801.38;5085791;28;20054;-65
2021/09/01 10:06:18;;;;;;;20.98;5.35;;;;;;;19.15;59.64;102800.47;5085443;28;20045;-67
2021/09/01 10:08:52;;;;;;;22.55;5.90;;;;;;;19.08;60.70;102804.03;5085393;28;20028;-70
2021/09/01 10:11:20;;;;;;;21.33;5.72;;;;;;;19.04;61.63;102796.88;5085823;28;20020;-67
2021/09/01 10:13:47;;;;;;;22.83;5.78;;;;;;;19.07;61.72;102791.53;5085313;28;20047;-68
2021/09/01 10:16:25;;;;;;;21.10;5.70;;;;;;;19.06;60.30;102800.47;5086476;28;20024;-69
2021/09/01 10:19:18;;;;;;;22.33;5.80;;;;;;;19.14;59.49;102796.00;5086498;28;20078;-66
2021/09/01 10:21:55;;;;;;;20.38;5.45;;;;;;;19.11;60.81;102797.78;5085387;28;20120;-65
2021/09/01 10:24:35;;;;;;;21.67;5.90;;;;;;;19.15;60.03;102788.84;5085193;28;20032;-60
2021/09/01 10:27:16;;;;;;;21.15;5.60;;;;;;;19.34;58.12;102790.59;5087660;28;20085;-64
2021/09/01 10:29:47;;;;;;;20.30;5.30;;;;;;;19.33;58.01;102783.44;5084469;28;20025;-65
2021/09/01 10:32:16;;;;;;;19.08;5.53;;;;;;;19.45;58.87;102789.69;5083872;28;20028;-67
2021/09/01 10:34:42;;;;;;;22.05;5.47;;;;;;;19.65;57.49;102787.84;5087235;28;20078;-60
2021/09/01 10:37:07;;;;;;;20.00;5.22;;;;;;;19.64;57.16;102787.84;5084117;28;20029;-67
2021/09/01 10:39:32;;;;;;;21.55;5.60;;;;;;;19.51;58.94;102785.22;5085717;28;20082;-65
2021/09/01 10:41:58;;;;;;;19.95;5.53;;;;;;;19.60;58.42;102789.66;5085388;28;20409;-63
2021/09/01 10:44:26;;;;;;;20.55;5.38;;;;;;;19.77;58.28;102784.22;5084327;28;20083;-64
2021/09/01 10:46:52;;;;;;;21.25;5.47;;;;;;;19.98;56.77;102785.06;5085830;28;20425;-62
2021/09/01 10:49:22;;;;;;;21.40;4.93;;;;;;;20.10;55.46;102779.66;5083808;28;20093;-67
2021/09/01 10:51:49;;;;;;;19.15;5.50;;;;;;;20.08;56.11;102778.78;5086426;28;20082;-70
2021/09/01 10:54:37;;;;;;;22.10;5.90;;;;;;;20.49;55.92;102772.28;5083310;28;20021;-71
2021/09/01 10:57:21;;;;;;;21.35;5.40;;;;;;;20.71;54.18;102769.47;5085613;28;20033;-71
2021/09/01 10:59:46;;;;;;;23.17;5.82;;;;;;;21.00;52.05;102757.56;5069271;28;20085;-70
2021/09/01 11:02:14;;;;;;;20.48;5.35;;;;;;;21.22;52.50;102755.59;5083189;28;20024;-71
2021/09/01 11:04:51;;;;;;;20.10;5.38;;;;;;;21.35;52.33;102762.63;5086431;28;20058;-70
2021/09/01 11:07:21;;;;;;;20.05;5.18;;;;;;;21.00;53.71;102765.63;5083107;28;20024;-71
2021/09/01 11:09:52;;;;;;;20.55;5.20;;;;;;;20.94;54.27;102765.69;5086726;28;20048;-70
2021/09/01 11:12:17;;;;;;;20.70;5.40;;;;;;;20.82;53.16;102762.19;5081586;28;20038;-70
2021/09/01 11:14:46;;;;;;;19.80;5.25;;;;;;;20.54;53.30;102759.69;5085550;28;20115;-70